Chama, NM

3:33 PM MDT on May 25, 2015 (GMT -0600)
Sheep Creek | | Change Station
CLOSE
Current Station
Personal Weather Station
Location: Antonito, CO
Elevation: 8622 ft
Nearby Weather Stations

Elev 8622 ft 37.08 °N, 106.30 °W | Updated 16 seconds ago

Rain
Rain
52.2 °F
Feels Like 52.2 °F
N
4.0
Wind Variable Wind from SSE
Gusts 14.0 mph

Today
High -- | Low -- °F
--% Chance of Precip.
Yesterday
High -- | Low -- °F
Precip. -- in
5:51 AM 8:15 PM
First Quarter, 52% visible
Pressure 30.10 in
Visibility 10.0 miles
Clouds Mostly Cloudy 4000 ft
Overcast 4600 ft
Dew Point 32 °F
Humidity 45%
Rainfall 0.00 in
Snow Depth Not available.
UV 3 out of 12
Pollen 7.20 out of 12
Air Quality Not available.
Flu Activity Local Activity
METAR KPSO 252055Z AUTO 31003KT 10SM -TSRA BKN040 OVC046 07/06 A3010 RMK AO2 LTG DSNT ALQS T00740059

More Conditions Fewer Conditions

Pressure 30.10 in
Visibility 10.0 miles
Clouds Mostly Cloudy 4000 ft
Overcast 4600 ft
Dew Point 32 °F
Humidity 45%
Rainfall 0.00 in
Snow Depth Not available.
UV 3 out of 12
Pollen 7.20 out of 12
Air Quality Not available.
Flu Activity Local Activity
METAR KPSO 252055Z AUTO 31003KT 10SM -TSRA BKN040 OVC046 07/06 A3010 RMK AO2 LTG DSNT ALQS T00740059

More Conditions Fewer Conditions

Nowcast | as of 2:04 PM MDT on May 25, 2015

Isolated to scattered showers and thunderstorms will continue to develop across portions of central to north central New Mexico through the afternoon. Storms will become more numerous in adjacent areas by the late afternoon. Storms will drift to the east at about 15 to 20 mph...producing brief downpours...erratic wind gusts to 45 mph...small hail...and deadly cloud to ground lightning. Rainfall amounts will generally range from a few hundredths of an inch to two tenths of an inch...but some stronger storms will be capable of producing higher amounts of three to six tenths of an inch in localized areas.

×

10-Day Weather Forecast

Almanac

Astronomy

May. 25, 2015 Rise Set
Actual Time
Civil Twilight
Nautical Twilight
Astronomical Twilight
Moon
Length of Visible Light
Length of Day
Tomorrow will be .
, % of the Moon is Illuminated

Today's Extremes

State Highs State Lows

Community

WunderPhotos

Upload Photos

1,824,139 photos uploaded!

WunderBlogs® & News

Nearby

Air Quality

  Air Quality AQ Index Pollutant
Not available.

Snow Depth

Station Depth Elevation

Earthquake Activity

City Distance Mag. Time & Date
Minimum magnitude displayed is 2.5.

Coastal Water Temperatures

Place Temperature

Stations

Nearby Weather Stations

Station Location Temp. Windchill Dew Point Humidity Wind Precip. Elev Updated Type